Time;durP1;ratioP1;P1;durP2;ratioP2;P2;SDS_P1;SDS_P2;PMS_P1;PMS_P2;Temp;Humidity;BMP_temperature;BMP_pressure;BME280_temperature;BME280_humidity;BME280_pressure;Samples;Min_cycle;Max_cycle;Signal;HPM_P1;HPM_P2
2023/05/02 00:03:57;;;;;;;;;;;;;;;11.86;100.00;101875.25;10537297;28;19927;-64
2023/05/02 00:09:00;;;;;;;;;;;;;;;11.99;100.00;101879.97;10545366;28;19928;-64
2023/05/02 00:14:02;;;;;;;;;;;;;;;11.64;100.00;101879.78;10546394;28;19924;-64
2023/05/02 00:19:04;;;;;;;;;;;;;;;11.66;100.00;101885.78;10521439;28;19925;-64
2023/05/02 00:24:06;;;;;;;;;;;;;;;11.83;100.00;101874.53;10505090;28;19979;-64
2023/05/02 00:29:09;;;;;;;;;;;;;;;11.79;100.00;101888.72;10504788;28;19924;-64
2023/05/02 00:34:11;;;;;;;;;;;;;;;11.80;100.00;101880.78;10518272;28;19928;-64
2023/05/02 00:39:13;;;;;;;;;;;;;;;11.48;100.00;101890.94;10528253;28;19932;-64
2023/05/02 00:44:17;;;;;;;;;;;;;;;11.66;100.00;101888.41;10546167;28;20418;-64
2023/05/02 00:49:19;;;;;;;;;;;;;;;11.62;100.00;101894.72;10530505;28;19924;-64
2023/05/02 00:54:21;;;;;;;;;;;;;;;11.65;100.00;101897.19;10504491;28;19979;-64
2023/05/02 00:59:23;;;;;;;;;;;;;;;11.31;100.00;101898.66;10504466;28;19936;-64
2023/05/02 01:04:41;;;;;;;;;;;;;;;11.70;100.00;101888.22;10486395;28;19932;-64
2023/05/02 01:09:46;;;;;;;;;;;;;;;11.62;100.00;101889.47;10502890;28;19933;-64
2023/05/02 01:14:50;;;;;;;;;;;;;;;11.55;100.00;101890.66;10504452;28;19951;-64
2023/05/02 01:19:56;;;;;;;;;;;;;;;11.51;100.00;101896.03;10525083;28;20355;-64
2023/05/02 01:25:17;;;;;;;;;;;;;;;11.55;100.00;101893.28;10545221;28;19928;-64
2023/05/02 01:30:19;;;;;;;;;;;;;;;11.49;100.00;101895.25;10515010;28;19924;-64
2023/05/02 01:35:21;;;;;;;;;;;;;;;11.81;100.00;101903.47;10484951;28;20367;-64
2023/05/02 01:40:25;;;;;;;;;;;;;;;11.54;100.00;101910.78;10484339;28;19929;-64
2023/05/02 01:45:27;;;;;;;;;;;;;;;11.29;100.00;101914.47;10484980;28;19924;-65
2023/05/02 01:50:29;;;;;;;;;;;;;;;11.62;100.00;101920.97;10522265;28;19924;-64
2023/05/02 01:55:32;;;;;;;;;;;;;;;11.29;100.00;101922.31;10500287;28;19925;-64
2023/05/02 02:00:34;;;;;;;;;;;;;;;11.25;100.00;101919.91;10484666;28;19924;-64
2023/05/02 02:05:37;;;;;;;;;;;;;;;11.32;100.00;101930.06;10501651;28;19925;-64
2023/05/02 02:10:40;;;;;;;;;;;;;;;11.22;100.00;101935.78;10483705;28;19928;-64
2023/05/02 02:15:42;;;;;;;;;;;;;;;11.24;100.00;101941.81;10483993;28;20020;-64
2023/05/02 02:20:44;;;;;;;;;;;;;;;11.10;100.00;101945.00;10483430;28;19928;-64
2023/05/02 02:25:47;;;;;;;;;;;;;;;11.28;100.00;101944.25;10482471;28;19924;-64
2023/05/02 02:30:49;;;;;;;;;;;;;;;11.49;100.00;101941.63;10481817;28;19924;-65
2023/05/02 02:35:53;;;;;;;;;;;;;;;11.38;100.00;101947.31;10499374;28;20342;-64
2023/05/02 02:40:56;;;;;;;;;;;;;;;11.33;100.00;101955.38;10484658;28;19924;-64
2023/05/02 02:46:06;;;;;;;;;;;;;;;11.45;100.00;101961.88;10524116;28;19978;-65
2023/05/02 02:51:17;;;;;;;;;;;;;;;11.21;100.00;101968.13;10507236;28;20022;-64
2023/05/02 02:56:31;;;;;;;;;;;;;;;11.20;100.00;101972.53;10530289;28;20383;-64
2023/05/02 03:01:34;;;;;;;;;;;;;;;10.92;100.00;101986.75;10481289;28;19929;-65
2023/05/02 03:06:36;;;;;;;;;;;;;;;10.93;100.00;101998.09;10481103;28;20007;-64
2023/05/02 03:11:38;;;;;;;;;;;;;;;10.63;100.00;102010.63;10510067;28;20376;-64
2023/05/02 03:16:40;;;;;;;;;;;;;;;10.76;100.00;102033.66;10498078;28;19924;-64
2023/05/02 03:21:43;;;;;;;;;;;;;;;10.63;100.00;102024.56;10481376;28;19925;-64
2023/05/02 03:26:46;;;;;;;;;;;;;;;10.49;100.00;102032.06;10498222;28;20283;-64
2023/05/02 03:31:49;;;;;;;;;;;;;;;10.45;100.00;102039.19;10498102;28;19924;-65
2023/05/02 03:36:51;;;;;;;;;;;;;;;10.92;100.00;102033.06;10533489;28;19924;-65
2023/05/02 03:41:53;;;;;;;;;;;;;;;10.48;100.00;102038.25;10540791;28;20382;-64
2023/05/02 03:46:56;;;;;;;;;;;;;;;10.57;100.00;102041.38;10543142;28;19928;-65
2023/05/02 03:51:58;;;;;;;;;;;;;;;10.26;100.00;102057.31;10507012;28;20023;-64
2023/05/02 03:57:00;;;;;;;;;;;;;;;10.56;100.00;102058.00;10506565;28;19929;-65
2023/05/02 04:02:03;;;;;;;;;;;;;;;10.08;100.00;102066.66;10506613;28;19979;-64
2023/05/02 04:07:06;;;;;;;;;;;;;;;10.28;100.00;102068.56;10505730;28;20282;-64
2023/05/02 04:12:09;;;;;;;;;;;;;;;10.44;100.00;102073.28;10534125;28;19924;-65
2023/05/02 04:17:12;;;;;;;;;;;;;;;10.36;100.00;102076.19;10490999;28;19979;-65
2023/05/02 04:22:15;;;;;;;;;;;;;;;10.36;100.00;102074.44;10505879;28;19947;-64
2023/05/02 04:27:17;;;;;;;;;;;;;;;10.39;100.00;102082.19;10504816;28;19932;-65
2023/05/02 04:32:19;;;;;;;;;;;;;;;10.23;100.00;102099.31;10487720;28;19925;-65
2023/05/02 04:37:21;;;;;;;;;;;;;;;10.57;99.49;102092.88;10542310;28;19975;-65
2023/05/02 04:42:23;;;;;;;;;;;;;;;10.53;98.90;102109.63;10546962;28;19935;-65
2023/05/02 04:47:26;;;;;;;;;;;;;;;10.16;100.00;102123.97;10544308;28;19924;-65
2023/05/02 04:52:28;;;;;;;;;;;;;;;10.37;99.38;102132.88;10544503;28;19930;-65
2023/05/02 04:57:31;;;;;;;;;;;;;;;10.75;97.46;102138.50;10544572;28;20073;-65
2023/05/02 05:02:33;;;;;;;;;;;;;;;10.17;98.98;102136.16;10545573;28;20089;-65
2023/05/02 05:07:35;;;;;;;;;;;;;;;10.63;96.50;102155.53;10544263;28;19924;-65
2023/05/02 05:12:37;;;;;;;;;;;;;;;10.14;100.00;102157.22;10544339;28;19931;-65
2023/05/02 05:17:40;;;;;;;;;;;;;;;10.38;97.16;102164.22;10485927;28;19924;-65
2023/05/02 05:22:43;;;;;;;;;;;;;;;10.54;92.01;102169.81;10485909;28;19924;-65
2023/05/02 05:27:45;;;;;;;;;;;;;;;10.59;91.71;102177.47;10503092;28;19931;-65
2023/05/02 05:32:47;;;;;;;;;;;;;;;10.70;89.83;102179.72;10503524;28;19928;-65
2023/05/02 05:37:50;;;;;;;;;;;;;;;10.84;88.47;102197.56;10542968;28;20302;-64
2023/05/02 05:42:52;;;;;;;;;;;;;;;10.40;88.91;102203.47;10544588;28;19931;-65
2023/05/02 05:47:55;;;;;;;;;;;;;;;10.82;87.50;102205.47;10523662;28;19925;-65
2023/05/02 05:52:57;;;;;;;;;;;;;;;10.70;87.23;102221.66;10525450;28;20019;-65
2023/05/02 05:57:59;;;;;;;;;;;;;;;10.82;85.44;102233.44;10522465;28;19924;-64
2023/05/02 06:03:02;;;;;;;;;;;;;;;10.87;84.95;102234.13;10539380;28;19931;-65
2023/05/02 06:08:05;;;;;;;;;;;;;;;10.79;84.20;102242.25;10542611;28;20006;-65
2023/05/02 06:13:07;;;;;;;;;;;;;;;10.69;83.91;102248.72;10522987;28;20334;-65
2023/05/02 06:18:09;;;;;;;;;;;;;;;10.68;83.25;102257.53;10528798;28;19932;-65
2023/05/02 06:23:12;;;;;;;;;;;;;;;11.01;82.55;102267.72;10500973;28;19966;-65
2023/05/02 06:28:14;;;;;;;;;;;;;;;10.91;81.97;102265.44;10530770;28;19928;-65
2023/05/02 06:33:16;;;;;;;;;;;;;;;10.76;79.52;102281.69;10517815;28;19924;-65
2023/05/02 06:38:19;;;;;;;;;;;;;;;10.87;79.91;102294.41;10498743;28;19924;-72
2023/05/02 06:43:21;;;;;;;;;;;;;;;10.95;77.80;102303.69;10472536;28;19979;-66
2023/05/02 06:48:24;;;;;;;;;;;;;;;10.87;79.21;102310.13;10480387;28;19932;-71
2023/05/02 06:53:26;;;;;;;;;;;;;;;10.55;77.74;102325.16;10501075;28;19983;-72
2023/05/02 06:58:28;;;;;;;;;;;;;;;10.82;79.57;102326.00;10479683;28;20473;-71
2023/05/02 07:03:31;;;;;;;;;;;;;;;10.94;77.67;102327.34;10475737;28;20425;-72
2023/05/02 07:08:34;;;;;;;;;;;;;;;11.29;78.35;102339.19;10487995;28;19958;-72
2023/05/02 07:13:36;;;;;;;;;;;;;;;11.91;74.46;102347.47;10512695;28;20284;-66
2023/05/02 07:18:38;;;;;;;;;;;;;;;11.38;73.97;102359.03;10511768;28;19924;-66
2023/05/02 07:23:41;;;;;;;;;;;;;;;12.39;74.25;102362.22;10500009;28;19931;-65
2023/05/02 07:28:43;;;;;;;;;;;;;;;12.24;73.35;102368.09;10481165;28;19971;-65
2023/05/02 07:33:45;;;;;;;;;;;;;;;12.13;71.29;102379.00;10498760;28;19932;-65
2023/05/02 07:38:48;;;;;;;;;;;;;;;12.40;72.28;102379.66;10498586;28;20378;-66
2023/05/02 07:43:50;;;;;;;;;;;;;;;11.87;71.32;102391.31;10498276;28;19924;-67
2023/05/02 07:48:52;;;;;;;;;;;;;;;11.66;71.84;102400.81;10498490;28;19931;-67
2023/05/02 07:53:57;;;;;;;;;;;;;;;11.13;72.83;102398.34;10497848;28;20007;-67
2023/05/02 07:58:59;;;;;;;;;;;;;;;11.59;72.23;102395.88;10498339;28;20375;-67
2023/05/02 08:04:01;;;;;;;;;;;;;;;11.47;71.19;102397.16;10497587;28;19963;-67
2023/05/02 08:09:04;;;;;;;;;;;;;;;11.65;68.12;102398.25;10497478;28;19928;-67
2023/05/02 08:14:06;;;;;;;;;;;;;;;11.73;69.41;102418.97;10480683;28;19925;-67
2023/05/02 08:19:08;;;;;;;;;;;;;;;11.92;69.75;102416.56;10497975;28;19925;-66
2023/05/02 08:24:10;;;;;;;;;;;;;;;12.10;70.40;102428.16;10497215;28;19979;-66
2023/05/02 08:29:13;;;;;;;;;;;;;;;11.40;68.45;102433.25;10501678;28;19924;-66
2023/05/02 08:34:15;;;;;;;;;;;;;;;11.97;69.19;102446.09;10504716;28;20379;-66
2023/05/02 08:39:18;;;;;;;;;;;;;;;12.17;67.62;102446.25;10505030;28;19979;-66
2023/05/02 08:44:20;;;;;;;;;;;;;;;11.80;69.62;102454.56;10504435;28;19928;-66
2023/05/02 08:49:23;;;;;;;;;;;;;;;11.87;69.59;102472.69;10486444;28;20316;-66
2023/05/02 08:54:25;;;;;;;;;;;;;;;11.78;69.13;102472.16;10494253;22;19928;-65
2023/05/02 08:59:28;;;;;;;;;;;;;;;11.88;69.76;102487.53;10486736;28;19924;-65
2023/05/02 09:04:34;;;;;;;;;;;;;;;11.53;67.80;102479.13;10485993;28;20290;-65
2023/05/02 09:09:36;;;;;;;;;;;;;;;11.88;67.88;102495.41;10486608;28;19932;-65
2023/05/02 09:14:38;;;;;;;;;;;;;;;12.25;66.78;102495.84;10486060;28;19925;-65
2023/05/02 09:19:41;;;;;;;;;;;;;;;12.57;66.51;102501.63;10503601;28;19932;-65
2023/05/02 09:24:43;;;;;;;;;;;;;;;13.51;64.61;102505.75;10503415;28;19928;-65
2023/05/02 09:29:45;;;;;;;;;;;;;;;12.42;64.15;102511.81;10468281;28;19935;-65
2023/05/02 09:35:03;;;;;;;;;;;;;;;13.73;62.57;102503.94;10503056;28;19971;-65
2023/05/02 09:40:06;;;;;;;;;;;;;;;12.88;62.98;102519.69;10502271;28;20019;-65
2023/05/02 09:45:17;;;;;;;;;;;;;;;13.58;59.58;102504.56;10484860;28;19952;-65
2023/05/02 09:50:32;;;;;;;;;;;;;;;12.80;58.07;102522.63;10484064;28;19979;-65
2023/05/02 09:55:35;;;;;;;;;;;;;;;13.34;58.22;102520.47;10501583;28;19928;-65
2023/05/02 10:00:38;;;;;;;;;;;;;;;12.94;58.83;102535.19;10501430;28;19971;-65
2023/05/02 10:05:41;;;;;;;;;;;;;;;13.52;58.00;102528.53;10501807;28;19971;-65
2023/05/02 10:10:49;;;;;;;;;;;;;;;13.55;58.22;102526.63;10483816;28;19971;-65
2023/05/02 10:16:01;;;;;;;;;;;;;;;13.08;58.18;102539.94;10501328;28;19959;-65
2023/05/02 10:21:11;;;;;;;;;;;;;;;13.86;57.21;102532.34;10482930;28;19931;-65
2023/05/02 10:26:14;;;;;;;;;;;;;;;13.31;55.54;102544.25;10483332;28;19928;-65
2023/05/02 10:31:17;;;;;;;;;;;;;;;13.74;54.50;102542.47;10482252;28;19991;-65
2023/05/02 10:36:20;;;;;;;;;;;;;;;14.23;55.42;102551.78;10500556;28;19959;-65
2023/05/02 10:41:26;;;;;;;;;;;;;;;15.06;55.57;102532.09;10482068;28;19975;-65
2023/05/02 10:46:35;;;;;;;;;;;;;;;14.60;50.86;102539.59;10481921;28;19931;-65
2023/05/02 10:51:41;;;;;;;;;;;;;;;16.94;50.93;102538.16;10498343;28;19986;-65
2023/05/02 10:56:58;;;;;;;;;;;;;;;18.24;48.79;102533.16;10499929;28;19931;-65
2023/05/02 11:02:01;;;;;;;;;;;;;;;18.90;47.34;102531.63;10497383;28;19932;-65
2023/05/02 11:07:04;;;;;;;;;;;;;;;15.78;45.63;102530.31;10499431;28;19939;-65
2023/05/02 11:12:07;;;;;;;;;;;;;;;15.65;48.53;102534.47;10499275;28;19979;-65
2023/05/02 11:17:09;;;;;;;;;;;;;;;20.48;45.38;102519.94;10498698;28;19925;-66
2023/05/02 11:22:18;;;;;;;;;;;;;;;17.27;47.02;102529.22;10498510;28;20418;-65
2023/05/02 11:27:29;;;;;;;;;;;;;;;17.91;45.47;102529.00;10498725;28;20418;-65
2023/05/02 11:32:52;;;;;;;;;;;;;;;17.61;46.26;102521.94;10498880;28;19939;-65
2023/05/02 11:38:07;;;;;;;;;;;;;;;18.73;43.27;102520.28;10498794;28;19925;-66
2023/05/02 11:43:13;;;;;;;;;;;;;;;18.13;43.76;102533.84;10498071;28;20383;-66
2023/05/02 11:48:16;;;;;;;;;;;;;;;17.20;49.94;102541.13;10480733;28;19983;-65
2023/05/02 11:53:21;;;;;;;;;;;;;;;19.00;40.28;102531.91;10498113;28;19952;-65
2023/05/02 11:58:31;;;;;;;;;;;;;;;20.00;39.99;102525.97;10480838;28;19925;-65
2023/05/02 12:03:33;;;;;;;;;;;;;;;19.37;42.93;102534.75;10501570;28;19924;-66
2023/05/02 12:08:36;;;;;;;;;;;;;;;17.38;43.84;102542.69;10505804;28;20299;-66
2023/05/02 12:13:43;;;;;;;;;;;;;;;21.22;42.17;102545.63;10506231;28;19975;-66
2023/05/02 12:18:46;;;;;;;;;;;;;;;19.54;40.96;102545.06;10506110;28;20047;-66
2023/05/02 12:23:48;;;;;;;;;;;;;;;21.22;39.44;102538.50;10488141;28;19929;-66
2023/05/02 12:28:51;;;;;;;;;;;;;;;21.96;36.61;102548.84;10505631;28;19924;-66
2023/05/02 12:33:56;;;;;;;;;;;;;;;19.38;37.90;102557.69;10504827;28;20450;-66
2023/05/02 12:39:02;;;;;;;;;;;;;;;19.60;39.87;102565.06;10488053;28;20384;-66
2023/05/02 12:44:06;;;;;;;;;;;;;;;21.34;37.60;102561.53;10488232;28;19928;-67
2023/05/02 12:49:08;;;;;;;;;;;;;;;19.83;38.62;102568.84;10504887;28;19967;-66
2023/05/02 12:54:18;;;;;;;;;;;;;;;20.24;39.38;102575.75;10486157;28;19946;-66
2023/05/02 12:59:27;;;;;;;;;;;;;;;17.55;42.95;102581.41;10486835;28;19971;-66
2023/05/02 13:04:33;;;;;;;;;;;;;;;21.41;39.70;102567.25;10487024;28;19928;-66
2023/05/02 13:09:36;;;;;;;;;;;;;;;20.33;38.93;102575.09;10504008;28;19932;-65
2023/05/02 13:14:38;;;;;;;;;;;;;;;17.43;39.61;102582.13;10503186;28;19924;-65
2023/05/02 13:19:40;;;;;;;;;;;;;;;21.01;40.65;102580.88;10503722;28;19986;-66
2023/05/02 13:24:51;;;;;;;;;;;;;;;20.22;38.71;102582.97;10503619;28;19928;-66
2023/05/02 13:29:54;;;;;;;;;;;;;;;18.79;39.73;102590.66;10484961;28;19924;-66
2023/05/02 13:34:56;;;;;;;;;;;;;;;19.80;39.61;102577.88;10503227;28;19979;-65
2023/05/02 13:39:58;;;;;;;;;;;;;;;20.53;35.76;102583.47;10502278;28;20375;-66
2023/05/02 13:45:04;;;;;;;;;;;;;;;22.58;35.34;102576.03;10502838;28;19924;-66
2023/05/02 13:50:06;;;;;;;;;;;;;;;22.94;35.79;102579.31;10502440;28;19928;-66
2023/05/02 13:55:08;;;;;;;;;;;;;;;20.69;36.39;102578.75;10501544;28;19928;-66
2023/05/02 14:00:11;;;;;;;;;;;;;;;19.63;38.04;102580.78;10502264;28;19925;-66
2023/05/02 14:05:13;;;;;;;;;;;;;;;20.35;38.04;102569.66;10501949;28;19924;-66
2023/05/02 14:10:16;;;;;;;;;;;;;;;20.05;38.73;102576.16;10501655;28;19929;-66
2023/05/02 14:15:19;;;;;;;;;;;;;;;20.18;36.76;102569.03;10500832;28;19952;-66
2023/05/02 14:20:25;;;;;;;;;;;;;;;20.02;37.00;102581.69;10500600;28;20319;-66
2023/05/02 14:25:27;;;;;;;;;;;;;;;20.93;38.83;102584.13;10500909;28;19928;-66
2023/05/02 14:30:30;;;;;;;;;;;;;;;21.06;36.34;102583.19;10500482;28;19928;-66
2023/05/02 14:35:32;;;;;;;;;;;;;;;22.82;34.76;102573.16;10500697;28;19924;-66
2023/05/02 14:40:34;;;;;;;;;;;;;;;20.15;38.59;102579.03;10500466;28;19929;-67
2023/05/02 14:45:37;;;;;;;;;;;;;;;20.51;38.41;102572.94;10499553;28;20329;-67
2023/05/02 14:50:39;;;;;;;;;;;;;;;21.83;35.60;102578.28;10500056;28;19925;-67
2023/05/02 14:55:42;;;;;;;;;;;;;;;21.76;34.57;102579.72;10499145;28;19924;-67
2023/05/02 15:00:44;;;;;;;;;;;;;;;22.08;37.89;102581.72;10499179;28;19959;-67
2023/05/02 15:05:46;;;;;;;;;;;;;;;18.32;38.63;102579.44;10499873;28;19928;-67
2023/05/02 15:10:48;;;;;;;;;;;;;;;20.97;36.45;102579.41;10498796;28;19995;-67
2023/05/02 15:15:52;;;;;;;;;;;;;;;20.99;35.81;102590.78;10498697;28;20338;-67
2023/05/02 15:20:54;;;;;;;;;;;;;;;18.44;41.54;102587.59;10498589;28;20264;-67
2023/05/02 15:25:57;;;;;;;;;;;;;;;20.50;38.40;102592.50;10498456;28;20295;-67
2023/05/02 15:30:59;;;;;;;;;;;;;;;21.19;37.13;102591.16;10481128;28;19979;-67
2023/05/02 15:36:01;;;;;;;;;;;;;;;21.68;36.76;102587.47;10498196;28;19932;-73
2023/05/02 15:41:04;;;;;;;;;;;;;;;21.74;37.40;102587.00;10494786;28;20450;-65
2023/05/02 15:46:06;;;;;;;;;;;;;;;21.63;38.63;102597.63;10476539;28;19929;-65
2023/05/02 15:51:09;;;;;;;;;;;;;;;19.60;39.23;102595.16;10465307;28;19931;-65
2023/05/02 15:56:11;;;;;;;;;;;;;;;19.10;40.37;102605.50;10496874;28;19925;-65
2023/05/02 16:01:14;;;;;;;;;;;;;;;17.96;41.79;102601.97;10497456;28;19925;-65
2023/05/02 16:06:16;;;;;;;;;;;;;;;18.15;42.81;102612.28;10478982;28;20347;-65
2023/05/02 16:11:18;;;;;;;;;;;;;;;17.03;43.81;102616.16;10496917;28;19928;-65
2023/05/02 16:16:20;;;;;;;;;;;;;;;17.28;44.87;102623.56;10494513;28;19952;-65
2023/05/02 16:21:23;;;;;;;;;;;;;;;16.55;45.05;102620.53;10496289;28;20394;-65
2023/05/02 16:26:25;;;;;;;;;;;;;;;15.85;44.87;102629.41;10496696;28;19971;-65
2023/05/02 16:31:29;;;;;;;;;;;;;;;16.55;47.06;102631.13;10497188;28;19924;-65
2023/05/02 16:36:32;;;;;;;;;;;;;;;15.41;47.31;102621.88;10497594;28;19971;-65
2023/05/02 16:41:34;;;;;;;;;;;;;;;15.90;46.72;102619.47;10496849;28;20408;-60
2023/05/02 16:46:37;;;;;;;;;;;;;;;16.72;46.76;102623.94;10497521;28;19932;-61
2023/05/02 16:51:39;;;;;;;;;;;;;;;16.49;45.07;102627.88;10501551;28;19931;-60
2023/05/02 16:56:41;;;;;;;;;;;;;;;15.99;45.69;102620.78;10504111;28;19924;-60
2023/05/02 17:01:44;;;;;;;;;;;;;;;16.21;45.40;102631.09;10504576;28;19928;-60
2023/05/02 17:06:46;;;;;;;;;;;;;;;14.58;47.63;102631.03;10504654;28;19928;-60
2023/05/02 17:11:49;;;;;;;;;;;;;;;14.74;47.67;102633.84;10503604;28;19924;-60
2023/05/02 17:16:51;;;;;;;;;;;;;;;14.41;49.42;102632.63;10486301;28;19932;-60
2023/05/02 17:21:54;;;;;;;;;;;;;;;14.53;50.19;102640.94;10503746;28;19999;-60
2023/05/02 17:26:56;;;;;;;;;;;;;;;14.09;47.39;102645.44;10503556;28;19928;-60
2023/05/02 17:32:00;;;;;;;;;;;;;;;14.12;50.40;102641.78;10503382;28;19932;-60
2023/05/02 17:37:02;;;;;;;;;;;;;;;13.96;50.83;102662.69;10503231;28;19924;-60
2023/05/02 17:42:04;;;;;;;;;;;;;;;13.80;51.11;102661.59;10503025;28;19979;-60
2023/05/02 17:47:07;;;;;;;;;;;;;;;12.99;53.12;102667.38;10502144;28;19932;-59
2023/05/02 17:52:09;;;;;;;;;;;;;;;13.33;52.65;102665.22;10501710;28;20295;-60
2023/05/02 17:57:13;;;;;;;;;;;;;;;13.10;53.31;102660.84;10498609;28;19987;-60
2023/05/02 18:02:16;;;;;;;;;;;;;;;12.85;54.60;102661.75;10501025;28;20363;-60
2023/05/02 18:07:22;;;;;;;;;;;;;;;12.85;56.19;102679.31;10501370;28;20290;-60
2023/05/02 18:12:24;;;;;;;;;;;;;;;12.50;56.13;102686.69;10500623;28;19971;-60
2023/05/02 18:17:27;;;;;;;;;;;;;;;12.49;55.15;102688.47;10500023;28;19929;-60
2023/05/02 18:22:29;;;;;;;;;;;;;;;12.30;58.03;102695.28;10497835;28;19924;-60
2023/05/02 18:27:32;;;;;;;;;;;;;;;12.18;56.80;102699.16;10482574;28;19924;-59
2023/05/02 18:32:34;;;;;;;;;;;;;;;11.81;57.20;102700.34;10506987;28;20391;-59
2023/05/02 18:37:36;;;;;;;;;;;;;;;11.86;58.46;102703.69;10487128;28;19928;-59
2023/05/02 18:42:39;;;;;;;;;;;;;;;11.67;57.06;102692.94;10498148;28;19947;-60
2023/05/02 18:47:41;;;;;;;;;;;;;;;11.24;59.45;102694.25;10499733;28;19947;-59
2023/05/02 18:52:44;;;;;;;;;;;;;;;11.15;60.11;102703.25;10498922;28;20290;-60
2023/05/02 18:57:46;;;;;;;;;;;;;;;10.84;60.63;102705.88;10498495;28;20088;-60
2023/05/02 19:02:52;;;;;;;;;;;;;;;10.56;60.72;102699.66;10493562;28;20287;-59
2023/05/02 19:07:54;;;;;;;;;;;;;;;10.56;61.27;102710.13;10485976;28;19925;-59
2023/05/02 19:12:57;;;;;;;;;;;;;;;10.81;61.28;102711.19;10497569;28;20392;-60
2023/05/02 19:17:59;;;;;;;;;;;;;;;10.45;61.86;102737.50;10499372;28;19928;-60
2023/05/02 19:23:02;;;;;;;;;;;;;;;10.40;61.45;102732.38;10497696;28;20391;-59
2023/05/02 19:28:19;;;;;;;;;;;;;;;10.22;62.19;102741.50;10521135;28;19968;-60
2023/05/02 19:33:22;;;;;;;;;;;;;;;10.09;63.58;102748.81;10494257;28;19979;-60
2023/05/02 19:38:24;;;;;;;;;;;;;;;10.00;65.01;102742.06;10497584;28;19924;-60
2023/05/02 19:43:26;;;;;;;;;;;;;;;9.79;65.83;102756.47;10498856;28;19956;-59
2023/05/02 19:48:29;;;;;;;;;;;;;;;9.32;66.95;102754.91;10498698;28;19932;-60
2023/05/02 19:53:32;;;;;;;;;;;;;;;9.18;68.21;102753.44;10498096;28;19924;-59
2023/05/02 19:58:34;;;;;;;;;;;;;;;9.15;68.74;102768.34;10480823;28;19932;-59
2023/05/02 20:03:37;;;;;;;;;;;;;;;9.07;67.79;102771.09;10498386;28;19936;-60
2023/05/02 20:08:39;;;;;;;;;;;;;;;8.61;70.88;102775.41;10490276;28;19958;-59
2023/05/02 20:13:41;;;;;;;;;;;;;;;8.71;71.05;102774.34;10495695;28;20368;-58
2023/05/02 20:18:44;;;;;;;;;;;;;;;8.42;71.54;102780.03;10492021;28;19928;-59
2023/05/02 20:23:46;;;;;;;;;;;;;;;8.24;73.42;102778.59;10497108;28;19987;-59
2023/05/02 20:28:51;;;;;;;;;;;;;;;8.18;72.74;102789.97;10504293;28;19978;-62
2023/05/02 20:33:53;;;;;;;;;;;;;;;8.04;73.42;102791.09;10502335;28;19932;-59
2023/05/02 20:38:56;;;;;;;;;;;;;;;8.12;73.95;102800.53;10499731;28;19924;-59
2023/05/02 20:44:00;;;;;;;;;;;;;;;7.90;75.21;102804.31;10501130;28;19924;-60
2023/05/02 20:49:02;;;;;;;;;;;;;;;7.74;75.92;102803.69;10504381;28;19924;-59
2023/05/02 20:54:04;;;;;;;;;;;;;;;8.02;74.57;102803.28;10503261;28;19925;-59
2023/05/02 20:59:07;;;;;;;;;;;;;;;7.76;75.38;102794.09;10503051;28;19929;-59
2023/05/02 21:04:09;;;;;;;;;;;;;;;7.38;78.80;102798.03;10504501;28;19925;-59
2023/05/02 21:09:11;;;;;;;;;;;;;;;7.87;75.75;102809.56;10534670;22;19924;-63
2023/05/02 21:14:16;;;;;;;;;;;;;;;7.30;77.77;102805.97;10545117;28;19931;-63
2023/05/02 21:19:19;;;;;;;;;;;;;;;7.69;76.07;102814.16;10527925;28;19958;-63
2023/05/02 21:24:21;;;;;;;;;;;;;;;7.30;77.40;102818.13;10526140;28;19924;-63
2023/05/02 21:29:23;;;;;;;;;;;;;;;7.23;77.49;102819.94;10545484;28;19924;-63
2023/05/02 21:34:25;;;;;;;;;;;;;;;6.99;78.90;102823.66;10543751;28;19924;-63
2023/05/02 21:39:27;;;;;;;;;;;;;;;7.06;78.89;102823.59;10544287;28;19928;-63
2023/05/02 21:44:30;;;;;;;;;;;;;;;6.82;80.66;102827.28;10544044;28;20367;-63
2023/05/02 21:49:32;;;;;;;;;;;;;;;7.10;79.62;102831.38;10543063;28;19928;-63
2023/05/02 21:54:34;;;;;;;;;;;;;;;6.93;80.80;102844.56;10544362;28;19924;-63
2023/05/02 21:59:36;;;;;;;;;;;;;;;6.67;83.13;102833.50;10543648;28;19931;-63
2023/05/02 22:04:39;;;;;;;;;;;;;;;6.59;82.63;102834.41;10543134;28;19924;-63
2023/05/02 22:09:41;;;;;;;;;;;;;;;6.52;84.16;102841.41;10543078;28;19974;-63
2023/05/02 22:14:43;;;;;;;;;;;;;;;6.42;85.20;102831.94;10542971;28;20375;-63
2023/05/02 22:19:49;;;;;;;;;;;;;;;6.48;84.13;102830.16;10541948;28;19924;-63
2023/05/02 22:24:51;;;;;;;;;;;;;;;6.40;85.02;102818.94;10541617;28;20338;-64
2023/05/02 22:29:55;;;;;;;;;;;;;;;6.24;86.09;102820.81;10542999;28;19924;-63
2023/05/02 22:34:57;;;;;;;;;;;;;;;6.43;85.57;102813.72;10541193;28;20291;-63
2023/05/02 22:39:59;;;;;;;;;;;;;;;6.10;87.47;102814.81;10542061;28;19973;-63
2023/05/02 22:45:01;;;;;;;;;;;;;;;6.43;85.73;102826.75;10541425;28;19931;-63
2023/05/02 22:50:04;;;;;;;;;;;;;;;6.17;88.19;102816.53;10541264;28;20010;-63
2023/05/02 22:55:08;;;;;;;;;;;;;;;6.44;87.15;102823.28;10542118;28;19924;-63
2023/05/02 23:00:11;;;;;;;;;;;;;;;6.25;88.29;102824.28;10540358;28;20389;-63
2023/05/02 23:05:13;;;;;;;;;;;;;;;6.08;87.92;102811.38;10521609;28;20374;-63
2023/05/02 23:10:15;;;;;;;;;;;;;;;6.44;87.78;102818.06;10540806;28;20393;-63
2023/05/02 23:15:17;;;;;;;;;;;;;;;6.19;87.29;102811.31;10540823;28;19928;-63
2023/05/02 23:20:21;;;;;;;;;;;;;;;6.41;86.88;102823.28;10540470;28;19924;-63
2023/05/02 23:25:25;;;;;;;;;;;;;;;5.85;88.33;102820.16;10541065;28;19931;-63
2023/05/02 23:30:28;;;;;;;;;;;;;;;5.89;89.80;102826.19;10540284;28;19923;-63
2023/05/02 23:35:31;;;;;;;;;;;;;;;5.81;90.77;102825.38;10539851;28;19951;-63
2023/05/02 23:40:33;;;;;;;;;;;;;;;5.63;92.15;102819.41;10539762;28;19924;-63
2023/05/02 23:45:35;;;;;;;;;;;;;;;5.66;91.12;102826.31;10521789;28;19924;-63
2023/05/02 23:50:38;;;;;;;;;;;;;;;5.71;90.29;102829.75;10522594;28;19973;-63
2023/05/02 23:55:40;;;;;;;;;;;;;;;5.65;91.32;102835.84;10539548;28;19924;-63
